createdAt,value
2022-11-27T17:49:43.518Z,8.27
2022-11-27T17:52:10.482Z,8.26
2022-11-27T17:54:37.684Z,8.21
2022-11-27T17:57:05.184Z,8.21
2022-11-27T17:59:31.840Z,8.26
2022-11-27T18:01:58.515Z,8.24
2022-11-27T18:04:25.325Z,8.27
2022-11-27T18:09:37.432Z,8.24
2022-11-27T18:12:06.352Z,8.31
2022-11-27T18:14:33.347Z,8.33
2022-11-27T18:17:04.613Z,8.32
2022-11-27T18:19:31.898Z,8.30
2022-11-27T18:22:00.104Z,8.23
2022-11-27T18:24:27.024Z,8.25
2022-11-27T18:27:10.125Z,8.29
2022-11-27T18:29:45.003Z,8.28
2022-11-27T18:32:13.017Z,8.28
2022-11-27T18:34:49.348Z,8.27
2022-11-27T18:37:16.088Z,8.26
2022-11-27T20:45:20.586Z,8.09
2022-11-27T20:47:49.403Z,8.08
2022-11-27T20:50:16.125Z,8.09
2022-11-27T20:52:43.001Z,8.09
2022-11-27T20:55:09.853Z,8.13
2022-11-27T20:57:43.748Z,8.11
2022-11-27T21:00:11.024Z,8.04
2022-11-27T21:02:44.085Z,8.02
2022-11-27T21:05:10.792Z,8.05
2022-11-27T21:07:39.097Z,8.03
2022-11-27T21:10:11.442Z,8.03
2022-11-27T21:12:40.949Z,7.99
2022-11-27T21:15:10.861Z,7.98
2022-11-27T21:17:39.067Z,7.95
2022-11-27T21:20:07.804Z,7.90
2022-11-27T21:22:34.572Z,7.90
2022-11-27T21:25:01.371Z,7.84
2022-11-27T21:27:29.235Z,7.87
2022-11-27T21:30:09.539Z,7.85
2022-11-27T21:32:36.289Z,7.83
2022-11-27T21:35:03.311Z,7.83
2022-11-27T21:37:30.137Z,7.87
2022-11-27T21:39:56.974Z,7.86
2022-11-27T21:42:24.189Z,7.81
2022-11-27T21:44:51.435Z,7.84
2022-11-27T21:47:19.073Z,7.78
2022-11-27T21:49:45.743Z,7.80
2022-11-27T21:52:12.997Z,7.79
2022-11-27T21:54:42.290Z,7.82
2022-11-27T21:57:09.167Z,7.77
2022-11-27T21:59:35.840Z,7.75
2022-11-27T22:02:02.517Z,7.80
2022-11-27T22:04:29.175Z,7.83
2022-11-27T22:06:55.909Z,7.87
2022-11-27T22:09:22.632Z,7.86
2022-11-27T22:11:49.463Z,7.91
2022-11-27T22:14:16.402Z,7.88
2022-11-27T22:16:45.900Z,7.87
2022-11-27T22:19:14.419Z,7.86
2022-11-27T22:21:41.283Z,7.84
2022-11-27T22:24:12.214Z,7.81
2022-11-27T22:26:43.702Z,7.82
2022-11-27T22:29:10.464Z,7.79
2022-11-27T22:31:37.586Z,7.80
2022-11-27T22:34:04.419Z,7.71
2022-11-27T22:36:33.387Z,7.75
2022-11-27T22:39:06.123Z,7.74
2022-11-27T22:41:36.601Z,7.75
2022-11-27T22:44:14.145Z,7.78
2022-11-27T22:46:42.497Z,7.75
2022-11-27T22:49:12.924Z,7.72
2022-11-27T22:51:40.408Z,7.74
2022-11-27T22:54:10.331Z,7.78
2022-11-27T22:56:38.682Z,7.81
2022-11-27T23:01:57.436Z,7.82
2022-11-27T23:04:38.684Z,7.80
2022-11-27T23:07:06.720Z,7.79
2022-11-27T23:09:33.768Z,7.76
2022-11-27T23:12:00.897Z,7.74
2022-11-27T23:14:29.629Z,7.75
2022-11-27T23:16:56.744Z,7.75
2022-11-27T23:19:23.589Z,7.80
2022-11-27T23:21:50.518Z,7.76
2022-11-27T23:24:17.515Z,7.79
2022-11-27T23:26:45.894Z,7.77
2022-11-27T23:29:14.133Z,7.78
2022-11-27T23:31:41.151Z,7.79
2022-11-27T23:34:11.113Z,7.76
2022-11-27T23:36:38.692Z,7.78
2022-11-27T23:39:07.235Z,7.72
2022-11-27T23:41:34.369Z,7.72
2022-11-27T23:44:02.172Z,7.65
2022-11-27T23:46:32.706Z,7.66
2022-11-27T23:49:00.775Z,7.65
2022-11-27T23:51:30.835Z,7.67
2022-11-27T23:53:58.529Z,7.69
2022-11-27T23:56:28.595Z,7.67
2022-11-27T23:58:56.563Z,7.66
